Time;durP1;ratioP1;P1;durP2;ratioP2;P2;SDS_P1;SDS_P2;PMS_P1;PMS_P2;Temp;Humidity;BMP_temperature;BMP_pressure;BME280_temperature;BME280_humidity;BME280_pressure;Samples;Min_cycle;Max_cycle;Signal;HPM_P1;HPM_P2
2022/07/06 00:01:19;;;;;;;;;;;;;;;26.58;64.73;99584.00;6216408;23;19922;-83
2022/07/06 00:03:45;;;;;;;;;;;;;;;26.49;65.43;99591.72;6243262;23;19958;-84
2022/07/06 00:06:10;;;;;;;;;;;;;;;26.35;64.64;99596.63;6243038;23;20330;-83
2022/07/06 00:08:36;;;;;;;;;;;;;;;26.34;64.91;99594.97;6242828;23;19915;-83
2022/07/06 00:11:02;;;;;;;;;;;;;;;26.29;65.29;99600.31;6242597;23;20321;-84
2022/07/06 00:13:27;;;;;;;;;;;;;;;26.27;64.62;99597.00;6243009;23;20359;-84
2022/07/06 00:15:53;;;;;;;;;;;;;;;26.30;65.28;99596.53;6216383;23;19919;-84
2022/07/06 00:18:19;;;;;;;;;;;;;;;26.23;64.19;99595.88;6258315;23;19916;-84
2022/07/06 00:20:44;;;;;;;;;;;;;;;26.18;64.64;99593.03;6258224;23;19915;-84
2022/07/06 00:23:09;;;;;;;;;;;;;;;26.15;64.63;99590.00;6253633;23;19920;-84
2022/07/06 00:25:35;;;;;;;;;;;;;;;25.96;64.97;99586.69;6216119;23;19943;-85
2022/07/06 00:28:00;;;;;;;;;;;;;;;25.88;65.41;99584.34;6247453;23;19956;-84
2022/07/06 00:30:41;;;;;;;;;;;;;;;25.86;65.72;99581.88;6248216;23;19947;-84
2022/07/06 00:33:07;;;;;;;;;;;;;;;25.86;65.43;99581.88;6247645;23;19916;-83
2022/07/06 00:35:32;;;;;;;;;;;;;;;25.66;65.92;99582.34;6222857;23;19912;-85
2022/07/06 00:37:58;;;;;;;;;;;;;;;25.64;66.40;99578.22;6223337;23;19939;-85
2022/07/06 00:40:23;;;;;;;;;;;;;;;25.66;67.94;99593.16;6198602;23;19956;-85
2022/07/06 00:42:49;;;;;;;;;;;;;;;25.42;73.16;99586.13;6250464;23;19916;-85
2022/07/06 00:45:16;;;;;;;;;;;;;;;25.39;75.14;99581.19;6251609;23;19939;-85
2022/07/06 00:47:42;;;;;;;;;;;;;;;25.38;75.56;99574.16;6249857;23;20248;-85
2022/07/06 00:50:14;;;;;;;;;;;;;;;25.44;75.96;99575.91;6253204;23;19912;-83
2022/07/06 00:52:41;;;;;;;;;;;;;;;25.33;77.56;99582.13;6250875;23;19973;-83
2022/07/06 00:55:08;;;;;;;;;;;;;;;25.23;78.75;99581.91;6245840;23;19911;-84
2022/07/06 00:57:34;;;;;;;;;;;;;;;25.24;78.28;99580.88;6248633;23;19916;-83
2022/07/06 00:59:59;;;;;;;;;;;;;;;25.19;77.68;99583.47;6248701;23;19911;-84
2022/07/06 01:02:25;;;;;;;;;;;;;;;25.16;76.89;99578.53;6248277;23;20003;-84
2022/07/06 01:04:50;;;;;;;;;;;;;;;25.14;76.81;99577.97;6248456;23;20430;-84
2022/07/06 01:07:16;;;;;;;;;;;;;;;24.99;77.46;99577.59;6249532;23;19919;-84
2022/07/06 01:09:42;;;;;;;;;;;;;;;25.01;78.37;99572.78;6251658;23;19915;-84
2022/07/06 01:12:08;;;;;;;;;;;;;;;25.09;78.51;99575.16;6249520;23;19919;-84
2022/07/06 01:14:34;;;;;;;;;;;;;;;25.09;79.61;99578.66;6222092;23;19946;-84
2022/07/06 01:17:00;;;;;;;;;;;;;;;25.04;79.62;99580.41;6248171;23;19939;-84
2022/07/06 01:19:25;;;;;;;;;;;;;;;25.01;79.76;99576.31;6248706;23;19916;-83
2022/07/06 01:21:51;;;;;;;;;;;;;;;24.93;80.79;99575.84;6245252;23;19950;-84
2022/07/06 01:24:17;;;;;;;;;;;;;;;24.91;80.88;99583.38;6247575;23;20291;-84
2022/07/06 01:26:43;;;;;;;;;;;;;;;24.83;82.28;99582.63;6247470;23;19965;-83
2022/07/06 01:29:08;;;;;;;;;;;;;;;24.78;83.76;99590.59;6248510;23;19920;-83
2022/07/06 01:31:34;;;;;;;;;;;;;;;24.76;84.11;99584.63;6247379;23;19915;-83
2022/07/06 01:33:59;;;;;;;;;;;;;;;24.65;84.31;99596.22;6247950;23;19916;-85
2022/07/06 01:36:25;;;;;;;;;;;;;;;24.60;84.00;99604.19;6194397;23;19927;-84
2022/07/06 01:38:51;;;;;;;;;;;;;;;24.64;83.46;99602.66;6249523;23;20234;-83
2022/07/06 01:41:17;;;;;;;;;;;;;;;24.62;83.73;99585.91;6251314;23;19939;-82
2022/07/06 01:43:43;;;;;;;;;;;;;;;24.61;83.74;99591.53;6223709;23;19916;-83
2022/07/06 01:46:09;;;;;;;;;;;;;;;24.57;84.22;99593.84;6195259;23;19967;-84
2022/07/06 01:48:35;;;;;;;;;;;;;;;24.57;83.88;99596.56;6229238;23;19936;-83
2022/07/06 01:51:00;;;;;;;;;;;;;;;24.54;83.52;99594.34;6230767;23;19934;-82
2022/07/06 01:53:25;;;;;;;;;;;;;;;24.58;83.13;99595.50;6227117;23;19922;-83
2022/07/06 01:55:51;;;;;;;;;;;;;;;24.63;82.15;99592.94;6221382;23;19916;-84
2022/07/06 01:58:16;;;;;;;;;;;;;;;24.66;81.24;99587.06;6223852;23;19938;-84
2022/07/06 02:00:42;;;;;;;;;;;;;;;24.62;80.60;99587.78;6192141;23;19978;-84
2022/07/06 02:03:08;;;;;;;;;;;;;;;24.67;80.37;99594.13;6217377;23;20352;-84
2022/07/06 02:05:36;;;;;;;;;;;;;;;24.64;80.91;99589.19;6215155;23;20280;-84
2022/07/06 02:08:03;;;;;;;;;;;;;;;24.69;80.88;99597.38;6214957;23;19920;-85
2022/07/06 02:10:29;;;;;;;;;;;;;;;24.73;80.93;99598.59;6214846;23;19962;-85
2022/07/06 02:12:54;;;;;;;;;;;;;;;24.39;81.58;99597.47;6216571;23;19926;-85
2022/07/06 02:15:20;;;;;;;;;;;;;;;24.19;82.47;99590.72;6220106;23;19919;-85
2022/07/06 02:17:45;;;;;;;;;;;;;;;24.09;82.38;99596.66;6218824;23;19920;-84
2022/07/06 02:20:11;;;;;;;;;;;;;;;24.12;81.05;99595.34;6219017;23;19919;-84
2022/07/06 02:22:36;;;;;;;;;;;;;;;24.13;79.72;99602.41;6191533;23;19923;-84
2022/07/06 02:25:02;;;;;;;;;;;;;;;24.19;78.72;99612.31;6218545;23;19924;-85
2022/07/06 02:27:27;;;;;;;;;;;;;;;24.20;77.82;99603.16;6218083;23;19912;-82
2022/07/06 02:29:53;;;;;;;;;;;;;;;24.19;77.34;99607.72;6191671;23;19920;-84
2022/07/06 02:32:19;;;;;;;;;;;;;;;24.11;77.82;99615.28;6217946;23;19916;-83
2022/07/06 02:34:44;;;;;;;;;;;;;;;24.08;77.97;99611.19;6216776;23;19927;-83
2022/07/06 02:37:10;;;;;;;;;;;;;;;24.10;77.34;99625.25;6190052;23;19916;-83
2022/07/06 02:39:35;;;;;;;;;;;;;;;24.14;77.28;99620.22;6216037;23;20687;-83
2022/07/06 02:42:02;;;;;;;;;;;;;;;24.20;77.03;99622.03;6213905;23;19920;-83
2022/07/06 02:44:28;;;;;;;;;;;;;;;24.25;76.81;99623.00;6215714;23;19978;-83
2022/07/06 02:46:53;;;;;;;;;;;;;;;24.36;76.64;99624.06;6215352;23;19930;-83
2022/07/06 02:49:19;;;;;;;;;;;;;;;24.39;76.19;99621.72;6164834;23;19934;-82
2022/07/06 02:51:45;;;;;;;;;;;;;;;24.45;75.34;99612.72;6215690;23;19926;-84
2022/07/06 02:54:11;;;;;;;;;;;;;;;24.46;75.31;99618.94;6188873;23;19994;-83
2022/07/06 02:56:36;;;;;;;;;;;;;;;24.47;75.20;99625.97;6214744;23;20380;-84
2022/07/06 02:59:02;;;;;;;;;;;;;;;24.41;75.50;99629.59;6188863;23;19970;-84
2022/07/06 03:01:28;;;;;;;;;;;;;;;24.36;75.99;99624.91;6187949;23;19920;-83
2022/07/06 03:03:54;;;;;;;;;;;;;;;24.35;77.14;99630.53;6215130;23;19920;-83
2022/07/06 03:06:19;;;;;;;;;;;;;;;24.37;76.95;99636.50;6187554;23;19920;-83
2022/07/06 03:08:45;;;;;;;;;;;;;;;24.21;77.46;99647.97;6186813;23;20028;-83
2022/07/06 03:11:11;;;;;;;;;;;;;;;23.84;79.29;99639.91;6186731;23;19915;-83
2022/07/06 03:13:38;;;;;;;;;;;;;;;23.62;82.51;99654.91;6186571;23;19916;-84
2022/07/06 03:16:04;;;;;;;;;;;;;;;23.59;83.95;99644.56;6211964;23;19919;-84
2022/07/06 03:18:30;;;;;;;;;;;;;;;23.49;84.89;99644.25;6186985;23;20000;-83
2022/07/06 03:20:55;;;;;;;;;;;;;;;23.51;84.39;99636.75;6186676;23;19923;-83
2022/07/06 03:23:21;;;;;;;;;;;;;;;23.64;83.56;99636.63;6186653;23;20349;-83
2022/07/06 03:25:47;;;;;;;;;;;;;;;23.62;83.26;99644.91;6186084;23;20007;-83
2022/07/06 03:28:12;;;;;;;;;;;;;;;23.71;83.08;99653.53;6213445;23;19916;-83
2022/07/06 03:30:38;;;;;;;;;;;;;;;23.80;82.47;99645.97;6186325;23;19916;-83
2022/07/06 03:33:03;;;;;;;;;;;;;;;23.81;82.04;99648.41;6213521;23;19920;-84
2022/07/06 03:35:29;;;;;;;;;;;;;;;23.91;82.52;99637.94;6211864;23;19956;-84
2022/07/06 03:37:55;;;;;;;;;;;;;;;23.89;84.84;99640.03;6186333;23;19947;-84
2022/07/06 03:40:23;;;;;;;;;;;;;;;24.01;84.01;99643.63;6213535;23;20245;-84
2022/07/06 03:42:50;;;;;;;;;;;;;;;24.05;85.39;99636.72;6204602;23;19915;-83
2022/07/06 03:45:15;;;;;;;;;;;;;;;24.08;87.44;99638.97;6216854;23;19923;-83
2022/07/06 03:47:41;;;;;;;;;;;;;;;24.13;88.63;99643.66;6243536;23;19970;-83
2022/07/06 03:50:08;;;;;;;;;;;;;;;24.17;89.27;99646.72;6242245;23;20311;-83
2022/07/06 03:52:34;;;;;;;;;;;;;;;24.13;90.46;99653.63;6242035;23;19915;-84
2022/07/06 03:55:00;;;;;;;;;;;;;;;24.17;90.99;99661.03;6216291;23;20295;-83
2022/07/06 03:57:28;;;;;;;;;;;;;;;24.24;91.57;99664.50;6217374;23;19990;-83
2022/07/06 03:59:56;;;;;;;;;;;;;;;24.31;92.43;99675.19;6216408;23;19947;-84
2022/07/06 04:02:22;;;;;;;;;;;;;;;24.29;93.69;99682.66;6216708;23;19927;-83
2022/07/06 04:04:50;;;;;;;;;;;;;;;24.31;94.76;99688.66;6216209;23;20730;-83
2022/07/06 04:07:15;;;;;;;;;;;;;;;24.32;95.68;99693.84;6244127;23;19922;-83
2022/07/06 04:09:41;;;;;;;;;;;;;;;24.22;96.25;99700.81;6243802;22;20248;-82
2022/07/06 04:12:07;;;;;;;;;;;;;;;24.26;94.57;99693.94;6243403;23;19919;-83
2022/07/06 04:14:34;;;;;;;;;;;;;;;24.23;92.16;99710.56;6216600;23;19937;-83
2022/07/06 04:17:51;;;;;;;;;;;;;;;24.02;92.34;99703.75;6216185;23;19916;-83
2022/07/06 04:19:45;;;;;;;;;;;;;;;24.00;93.22;99703.97;6243143;23;19919;-83
2022/07/06 04:22:11;;;;;;;;;;;;;;;23.99;94.91;99704.19;6243388;23;19978;-83
2022/07/06 04:24:36;;;;;;;;;;;;;;;24.06;95.21;99711.16;6241409;23;20038;-83
2022/07/06 04:27:02;;;;;;;;;;;;;;;24.13;96.14;99715.63;6215602;23;20284;-83
2022/07/06 04:29:27;;;;;;;;;;;;;;;24.18;97.35;99718.47;6216566;23;19951;-83
2022/07/06 04:31:53;;;;;;;;;;;;;;;24.27;98.18;99719.84;6243026;23;19998;-84
2022/07/06 04:34:19;;;;;;;;;;;;;;;24.35;99.69;99714.13;6216286;23;19954;-84
2022/07/06 04:36:44;;;;;;;;;;;;;;;24.45;100.00;99711.69;6216276;23;19919;-84
2022/07/06 04:39:10;;;;;;;;;;;;;;;24.52;99.60;99704.34;6243601;23;19922;-84
2022/07/06 04:41:36;;;;;;;;;;;;;;;24.59;100.00;99709.63;6243005;23;19918;-84
2022/07/06 04:44:02;;;;;;;;;;;;;;;24.58;100.00;99714.22;6243954;23;19926;-85
2022/07/06 04:46:27;;;;;;;;;;;;;;;24.65;100.00;99714.13;6243668;23;19920;-83
2022/07/06 04:48:53;;;;;;;;;;;;;;;24.64;100.00;99718.69;6243352;23;20006;-85
2022/07/06 04:51:23;;;;;;;;;;;;;;;24.69;100.00;99726.91;6243842;23;20002;-84
2022/07/06 04:53:49;;;;;;;;;;;;;;;24.73;99.50;99732.69;6216768;23;19947;-85
2022/07/06 04:56:14;;;;;;;;;;;;;;;24.76;99.33;99726.81;6216338;23;19927;-85
2022/07/06 04:58:40;;;;;;;;;;;;;;;24.77;99.30;99731.16;6216875;23;19981;-85
2022/07/06 05:01:08;;;;;;;;;;;;;;;24.79;98.90;99732.59;6216938;23;19981;-84
2022/07/06 05:03:39;;;;;;;;;;;;;;;24.78;98.28;99739.03;6216816;23;19919;-82
2022/07/06 05:06:05;;;;;;;;;;;;;;;24.81;98.24;99733.16;6216640;23;19955;-82
2022/07/06 05:08:31;;;;;;;;;;;;;;;24.82;97.46;99742.09;6216808;23;19915;-84
2022/07/06 05:10:56;;;;;;;;;;;;;;;24.84;97.09;99738.13;6217441;23;19998;-83
2022/07/06 05:13:22;;;;;;;;;;;;;;;24.85;97.05;99753.28;6225912;23;19919;-84
2022/07/06 05:15:47;;;;;;;;;;;;;;;24.74;97.23;99756.72;6236423;23;19938;-83
2022/07/06 05:18:16;;;;;;;;;;;;;;;24.73;97.32;99755.09;6261519;23;19922;-84
2022/07/06 05:20:42;;;;;;;;;;;;;;;24.80;96.72;99761.19;6236124;23;19915;-84
2022/07/06 05:23:08;;;;;;;;;;;;;;;24.84;96.86;99767.81;6230269;23;19942;-84
2022/07/06 05:25:34;;;;;;;;;;;;;;;24.86;96.77;99760.28;6246524;23;19912;-84
2022/07/06 05:28:00;;;;;;;;;;;;;;;24.82;96.44;99761.81;6218391;23;19916;-82
2022/07/06 05:30:26;;;;;;;;;;;;;;;24.78;96.42;99757.94;6241700;23;20321;-82
2022/07/06 05:32:51;;;;;;;;;;;;;;;24.85;96.56;99771.34;6243464;23;19916;-82
2022/07/06 05:35:17;;;;;;;;;;;;;;;24.88;96.17;99769.03;6243492;23;19922;-83
2022/07/06 05:37:43;;;;;;;;;;;;;;;24.84;96.03;99773.22;6216141;23;19915;-83
2022/07/06 05:40:09;;;;;;;;;;;;;;;24.81;96.44;99779.06;6216069;23;19961;-83
2022/07/06 05:42:35;;;;;;;;;;;;;;;24.81;96.09;99778.22;6242104;23;19966;-83
2022/07/06 05:45:00;;;;;;;;;;;;;;;24.85;96.46;99785.66;6242256;23;19915;-82
2022/07/06 05:50:17;;;;;;;;;;;;;;;24.85;95.70;99796.44;6215248;23;20321;-80
2022/07/06 05:52:59;;;;;;;;;;;;;;;24.87;95.65;99799.72;6214554;23;20359;-83
2022/07/06 05:55:27;;;;;;;;;;;;;;;24.96;95.36;99802.16;6215361;23;19916;-83
2022/07/06 05:57:53;;;;;;;;;;;;;;;25.00;95.24;99808.72;6241644;23;19912;-71
2022/07/06 06:00:21;;;;;;;;;;;;;;;25.04;95.20;99808.03;6214971;23;19918;-72
2022/07/06 06:02:51;;;;;;;;;;;;;;;25.09;94.75;99812.75;6214390;23;19970;-72
2022/07/06 06:05:17;;;;;;;;;;;;;;;25.13;94.55;99816.63;6241641;23;19919;-72
2022/07/06 06:07:46;;;;;;;;;;;;;;;25.13;94.26;99822.03;6241413;23;20339;-71
2022/07/06 06:10:12;;;;;;;;;;;;;;;25.15;93.89;99823.44;6214789;23;19916;-72
2022/07/06 06:12:39;;;;;;;;;;;;;;;25.13;93.81;99822.03;6239488;23;19916;-72
2022/07/06 06:15:05;;;;;;;;;;;;;;;25.11;94.04;99832.22;6214755;23;19994;-73
2022/07/06 06:17:30;;;;;;;;;;;;;;;25.08;94.54;99833.53;6241645;23;20280;-72
2022/07/06 06:19:56;;;;;;;;;;;;;;;25.11;94.25;99833.06;6239481;23;19990;-71
2022/07/06 06:22:22;;;;;;;;;;;;;;;25.10;94.10;99831.41;6241644;23;20328;-73
2022/07/06 06:24:47;;;;;;;;;;;;;;;25.13;94.37;99841.75;6241036;23;19981;-72
2022/07/06 06:27:13;;;;;;;;;;;;;;;25.14;94.06;99847.97;6240527;23;19916;-71
2022/07/06 06:29:38;;;;;;;;;;;;;;;25.11;93.84;99843.84;6241188;23;19931;-72
2022/07/06 06:32:05;;;;;;;;;;;;;;;25.18;93.96;99843.75;6241694;23;19916;-72
2022/07/06 06:34:31;;;;;;;;;;;;;;;25.20;93.49;99845.19;6241464;23;20336;-72
2022/07/06 06:36:56;;;;;;;;;;;;;;;25.20;92.95;99852.47;6241559;23;19977;-71
2022/07/06 06:39:22;;;;;;;;;;;;;;;25.24;93.00;99856.34;6240067;23;19970;-72
2022/07/06 06:41:47;;;;;;;;;;;;;;;25.29;92.99;99856.47;6241061;23;19915;-72
2022/07/06 06:44:14;;;;;;;;;;;;;;;25.33;92.23;99863.03;6241544;23;19919;-72
2022/07/06 06:46:40;;;;;;;;;;;;;;;25.40;92.28;99869.19;6241843;23;20532;-72
2022/07/06 06:49:05;;;;;;;;;;;;;;;25.46;91.83;99873.66;6240897;23;19973;-72
2022/07/06 06:51:31;;;;;;;;;;;;;;;25.53;91.31;99874.38;6214725;23;19994;-70
2022/07/06 06:53:57;;;;;;;;;;;;;;;25.50;90.97;99882.97;6241017;23;19927;-77
2022/07/06 06:56:23;;;;;;;;;;;;;;;25.60;90.76;99880.53;6241740;23;20221;-78
2022/07/06 06:58:49;;;;;;;;;;;;;;;25.72;89.90;99882.44;6242142;23;19999;-77
2022/07/06 07:01:15;;;;;;;;;;;;;;;25.81;89.77;99875.63;6216076;23;20723;-78
2022/07/06 07:03:40;;;;;;;;;;;;;;;25.94;88.86;99891.63;6242696;23;19915;-77
2022/07/06 07:06:06;;;;;;;;;;;;;;;25.99;87.58;99889.03;6242135;23;19915;-76
2022/07/06 07:08:31;;;;;;;;;;;;;;;26.04;87.55;99891.84;6243192;23;19916;-77
2022/07/06 07:14:24;;;;;;;;;;;;;;;26.08;86.57;99904.69;6243359;23;19926;-76
2022/07/06 07:16:50;;;;;;;;;;;;;;;26.07;87.33;99907.63;6216544;23;19951;-77
2022/07/06 07:19:15;;;;;;;;;;;;;;;26.02;86.80;99908.34;6217955;23;19916;-77
2022/07/06 07:21:41;;;;;;;;;;;;;;;26.05;87.53;99917.84;6243955;23;19923;-77
2022/07/06 07:24:07;;;;;;;;;;;;;;;26.05;86.98;99925.94;6243949;23;19916;-78
2022/07/06 07:26:33;;;;;;;;;;;;;;;26.08;87.13;99909.28;6242827;23;19923;-77
2022/07/06 07:28:58;;;;;;;;;;;;;;;26.15;86.70;99915.41;6216527;23;19920;-77
2022/07/06 07:31:23;;;;;;;;;;;;;;;26.15;86.12;99915.41;6216907;23;19931;-77
2022/07/06 07:33:49;;;;;;;;;;;;;;;26.18;86.47;99920.31;6243340;23;19951;-77
2022/07/06 07:36:14;;;;;;;;;;;;;;;26.16;85.80;99914.31;6215823;23;20340;-77
2022/07/06 07:38:40;;;;;;;;;;;;;;;26.13;85.63;99917.50;6242903;23;19986;-77
2022/07/06 07:41:06;;;;;;;;;;;;;;;26.07;86.26;99913.84;6245465;23;19918;-77
2022/07/06 07:43:31;;;;;;;;;;;;;;;26.09;86.38;99927.16;6218607;23;19931;-77
2022/07/06 07:45:56;;;;;;;;;;;;;;;26.14;86.50;99916.44;6243360;23;19923;-77
2022/07/06 07:48:22;;;;;;;;;;;;;;;26.20;85.81;99918.22;6244358;23;19915;-77
2022/07/06 07:50:47;;;;;;;;;;;;;;;26.26;85.35;99913.78;6243859;23;19918;-77
2022/07/06 07:53:13;;;;;;;;;;;;;;;26.29;85.18;99916.81;6216546;23;20297;-77
2022/07/06 07:55:38;;;;;;;;;;;;;;;26.34;84.92;99921.50;6216602;23;19916;-76
2022/07/06 07:58:04;;;;;;;;;;;;;;;26.41;84.68;99914.94;6242836;23;20351;-78
2022/07/06 08:00:29;;;;;;;;;;;;;;;26.39;84.34;99922.44;6243866;23;19958;-77
2022/07/06 08:02:55;;;;;;;;;;;;;;;26.43;84.05;99933.63;6243115;23;19919;-76
2022/07/06 08:05:20;;;;;;;;;;;;;;;26.47;83.90;99930.22;6240005;23;19916;-77
2022/07/06 08:07:46;;;;;;;;;;;;;;;26.53;83.13;99933.03;6242047;23;19919;-77
2022/07/06 08:10:11;;;;;;;;;;;;;;;26.57;82.74;99940.44;6215614;23;19961;-75
2022/07/06 08:12:37;;;;;;;;;;;;;;;26.56;82.37;99935.28;6242220;23;19918;-77
2022/07/06 08:15:03;;;;;;;;;;;;;;;26.60;82.17;99928.31;6242668;23;19916;-77
2022/07/06 08:17:28;;;;;;;;;;;;;;;26.64;82.60;99922.19;6215836;23;20002;-78
2022/07/06 08:19:54;;;;;;;;;;;;;;;26.73;82.54;99928.06;6242887;23;19916;-78
2022/07/06 08:22:19;;;;;;;;;;;;;;;26.82;81.90;99921.19;6242775;23;19943;-78
2022/07/06 08:24:45;;;;;;;;;;;;;;;26.88;80.88;99925.69;6215264;23;19916;-78
2022/07/06 08:27:10;;;;;;;;;;;;;;;26.92;80.77;99932.25;6242268;23;20260;-77
2022/07/06 08:29:36;;;;;;;;;;;;;;;26.94;79.84;99935.56;6215797;23;19912;-77
2022/07/06 08:32:01;;;;;;;;;;;;;;;26.99;80.25;99938.38;6215910;23;20013;-78
2022/07/06 08:34:26;;;;;;;;;;;;;;;27.04;80.53;99935.75;6243171;23;19915;-78
2022/07/06 08:36:52;;;;;;;;;;;;;;;27.09;79.76;99946.72;6242199;23;19927;-78
2022/07/06 08:39:17;;;;;;;;;;;;;;;27.16;78.97;99941.97;6242465;23;19922;-77
2022/07/06 08:41:47;;;;;;;;;;;;;;;27.19;78.18;99933.38;6242183;23;19916;-78
2022/07/06 08:44:13;;;;;;;;;;;;;;;27.19;78.05;99935.25;6215916;23;19916;-78
2022/07/06 08:46:39;;;;;;;;;;;;;;;27.16;78.76;99933.81;6242404;23;19923;-79
2022/07/06 08:49:07;;;;;;;;;;;;;;;27.20;78.36;99947.72;6243120;23;19915;-78
2022/07/06 08:51:34;;;;;;;;;;;;;;;27.20;78.42;99940.44;6243394;23;20494;-78
2022/07/06 08:54:01;;;;;;;;;;;;;;;27.25;77.73;99937.81;6242627;23;20063;-79
2022/07/06 08:56:27;;;;;;;;;;;;;;;27.28;77.65;99948.16;6242556;23;19916;-79
2022/07/06 08:58:53;;;;;;;;;;;;;;;27.28;77.52;99931.06;6242568;23;19962;-79
2022/07/06 09:01:19;;;;;;;7.37;1.97;;;;;;;27.42;77.27;99942.44;6243370;23;19920;-74
2022/07/06 09:03:48;;;;;;;;;;;;;;;27.42;74.75;99945.16;6242593;23;20004;-78
2022/07/06 09:06:16;;;;;;;;;;;;;;;27.44;76.34;99937.63;6242433;23;20290;-78
2022/07/06 09:08:42;;;;;;;;;;;;;;;27.49;76.49;99943.13;6242391;23;20253;-77
2022/07/06 09:11:08;;;;;;;;;;;;;;;27.57;75.86;99940.03;6242160;23;19907;-77
2022/07/06 09:13:33;;;;;;;;;;;;;;;27.64;75.98;99940.69;6242985;23;19922;-77
2022/07/06 09:16:12;;;;;;;;;;;;;;;27.70;75.24;99940.56;6242261;23;19959;-78
2022/07/06 09:18:38;;;;;;;;;;;;;;;27.79;74.77;99932.84;6216276;23;19990;-78
2022/07/06 09:21:04;;;;;;;;;;;;;;;27.82;71.97;99932.34;6242906;23;20248;-76
2022/07/06 09:23:30;;;;;;;;;;;;;;;27.83;72.75;99936.69;6242572;23;20245;-78
2022/07/06 09:25:55;;;;;;;;;;;;;;;27.79;72.92;99937.44;6214696;23;19933;-76
2022/07/06 09:28:21;;;;;;;;;;;;;;;27.73;72.99;99936.53;6241625;23;19973;-77
2022/07/06 09:30:46;;;;;;;;;;;;;;;27.60;76.05;99940.38;6241946;23;19986;-78
2022/07/06 09:33:16;;;;;;;;;;;;;;;27.65;75.97;99942.34;6242361;23;19912;-77
2022/07/06 09:35:42;;;;;;;;;;;;;;;27.64;75.00;99940.69;6242499;23;19912;-76
2022/07/06 09:38:11;;;;;;;;;;;;;;;27.63;73.26;99933.63;6243159;23;19961;-74
2022/07/06 09:40:44;;;;;;;;;;;;;;;27.71;73.21;99930.53;6241959;23;20324;-75
2022/07/06 09:43:10;;;;;;;;;;;;;;;27.85;71.81;99920.19;6242009;23;19992;-75
2022/07/06 09:45:36;;;;;;;;;;;;;;;27.87;71.93;99924.28;6242580;23;19915;-75
2022/07/06 09:48:05;;;;;;;;;;;;;;;27.87;71.78;99928.88;6241781;23;20240;-73
2022/07/06 09:50:37;;;;;;;;;;;;;;;27.85;71.28;99925.63;6242722;23;19990;-74
2022/07/06 09:53:03;;;;;;;;;;;;;;;27.95;70.66;99925.78;6242380;23;19912;-73
2022/07/06 09:55:29;;;;;;;;;;;;;;;28.05;69.55;99926.75;6242235;23;19968;-74
2022/07/06 09:57:55;;;;;;;;;;;;;;;28.04;70.33;99930.53;6240555;23;19915;-74
2022/07/06 10:00:20;;;;;;;;;;;;;;;28.00;70.01;99929.38;6240167;23;19911;-74
2022/07/06 10:02:48;;;;;;;;;;;;;;;28.06;70.84;99925.69;6239331;23;19912;-74
2022/07/06 10:05:15;;;;;;;;;;;;;;;28.08;70.66;99926.25;6242316;23;20228;-74
2022/07/06 10:07:41;;;;;;;;;;;;;;;28.09;71.23;99927.91;6241747;23;20374;-72
2022/07/06 10:10:08;;;;;;;;;;;;;;;28.10;70.43;99929.53;6241592;23;19960;-73
2022/07/06 10:12:33;;;;;;;;;;;;;;;28.09;70.97;99911.63;6241383;23;19911;-73
2022/07/06 10:14:59;;;;;;;;;;;;;;;28.05;71.00;99918.59;6241741;23;19939;-74
2022/07/06 10:17:25;;;;;;;;;;;;;;;27.99;70.42;99922.31;6242368;23;19915;-74
2022/07/06 10:19:51;;;;;;;;;;;;;;;27.90;71.19;99914.84;6241777;23;19965;-74
2022/07/06 10:22:17;;;;;;;;;;;;;;;27.85;71.18;99910.16;6241678;23;19907;-74
2022/07/06 10:24:43;;;;;;;;;;;;;;;27.83;71.70;99909.59;6242111;23;20275;-73
2022/07/06 10:27:10;;;;;;;;;;;;;;;27.89;72.90;99908.59;6241706;23;19911;-74
2022/07/06 10:29:36;;;;;;;;;;;;;;;27.96;71.93;99909.25;6242040;23;20225;-74
2022/07/06 10:32:02;;;;;;;;;;;;;;;28.00;72.09;99910.41;6242540;23;19912;-74
2022/07/06 10:34:27;;;;;;;;;;;;;;;28.09;70.44;99911.63;6244104;23;19911;-72
2022/07/06 10:36:54;;;;;;;;;;;;;;;28.09;72.45;99906.22;6243682;23;19911;-73
2022/07/06 10:42:51;;;;;;;;;;;;;;;28.24;70.62;99902.09;6243490;23;20766;-73
2022/07/06 10:45:40;;;;;;;;;;;;;;;28.23;70.50;99898.56;6209596;23;20020;-73
2022/07/06 10:48:11;;;;;;;;;;;;;;;28.33;70.58;99890.56;6235272;23;19923;-73
2022/07/06 10:50:50;;;;;;;;;;;;;;;28.50;70.02;99904.09;6243374;23;19919;-73
2022/07/06 10:53:18;;;;;;;;;;;;;;;28.55;68.19;99892.47;6217012;23;19911;-73
2022/07/06 10:55:46;;;;;;;;;;;;;;;28.53;69.09;99895.44;6243566;23;19908;-73
2022/07/06 10:58:11;;;;;;;;;;;;;;;28.60;69.49;99890.66;6243147;23;20336;-74
2022/07/06 11:00:53;;;;;;;;;;;;;;;28.68;69.32;99886.69;6243594;23;19918;-73
2022/07/06 11:03:37;;;;;;;;;;;;;;;28.76;69.72;99884.34;6243918;23;20265;-74
2022/07/06 11:06:22;;;;;;;;;;;;;;;28.84;70.77;99883.09;6243742;23;19918;-73
2022/07/06 11:08:49;;;;;;;;;;;;;;;28.89;67.74;99900.28;6243055;23;19911;-74
2022/07/06 11:11:20;;;;;;;;;;;;;;;28.87;67.50;99896.97;6243936;23;19911;-74
2022/07/06 11:13:49;;;;;;;;;;;;;;;28.86;66.46;99897.25;6243356;23;19988;-73
2022/07/06 11:16:15;;;;;;;;;;;;;;;28.76;67.18;99889.78;6243614;23;19915;-74
2022/07/06 11:18:45;;;;;;;;;;;;;;;28.76;66.95;99883.53;6243469;23;19930;-73
2022/07/06 11:21:31;;;;;;;;;;;;;;;28.80;66.34;99895.56;6244181;23;19918;-73
2022/07/06 11:23:56;;;;;;;;;;;;;;;28.79;65.68;99892.00;6242913;23;19911;-73
2022/07/06 11:26:22;;;;;;;;;;;;;;;28.79;65.46;99883.88;6243571;23;19912;-73
2022/07/06 11:28:48;;;;;;;;;;;;;;;28.80;66.33;99880.09;6243244;23;19953;-73
2022/07/06 11:31:14;;;;;;;;;;;;;;;28.83;65.83;99882.28;6242820;23;19918;-73
2022/07/06 11:33:40;;;;;;;;;;;;;;;28.87;65.29;99869.81;6242747;23;19934;-73
2022/07/06 11:36:15;;;;;;;;;;;;;;;28.94;67.13;99857.94;6241153;23;20240;-73
2022/07/06 11:38:41;;;;;;;;;;;;;;;28.90;64.54;99863.88;6216139;23;19981;-72
2022/07/06 11:41:07;;;;;;;;;;;;;;;28.90;65.64;99857.63;6242804;23;19954;-73
2022/07/06 11:43:33;;;;;;;;;;;;;;;28.94;65.84;99855.22;6242442;23;19915;-73
2022/07/06 11:45:58;;;;;;;;;;;;;;;28.99;63.76;99860.69;6242511;23;19922;-73
2022/07/06 11:48:24;;;;;;;;;;;;;;;29.11;61.69;99847.78;6216090;23;19978;-73
2022/07/06 11:51:02;;;;;;;;;;;;;;;29.19;61.50;99844.63;6242420;23;20324;-73
2022/07/06 11:53:27;;;;;;;;;;;;;;;29.30;62.26;99835.47;6244099;23;20425;-73
2022/07/06 11:55:53;;;;;;;;;;;;;;;29.43;61.11;99837.81;6243255;23;19915;-73
2022/07/06 11:58:21;;;;;;;;;;;;;;;29.41;60.98;99820.91;6242911;23;19921;-74
2022/07/06 12:01:03;;;;;;;;;;;;;;;29.43;59.06;99824.22;6242803;23;19917;-73
2022/07/06 12:03:28;;;;;;;;;;;;;;;29.43;60.92;99826.94;6216186;23;20233;-75
2022/07/06 12:05:54;;;;;;;;;;;;;;;29.51;61.06;99820.19;6216127;23;19918;-75
2022/07/06 12:08:19;;;;;;;;;;;;;;;29.64;59.18;99822.44;6242884;23;19907;-75
2022/07/06 12:10:44;;;;;;;;;;;;;;;29.77;60.32;99818.47;6242942;23;20424;-75
2022/07/06 12:13:10;;;;;;;;;;;;;;;29.92;60.55;99810.44;6242977;23;19912;-75
2022/07/06 12:15:36;;;;;;;;;;;;;;;30.06;59.70;99808.88;6243450;23;19914;-75
2022/07/06 12:18:01;;;;;;;;;;;;;;;30.21;57.74;99806.25;6215815;23;19946;-73
2022/07/06 12:20:27;;;;;;;;;;;;;;;30.33;57.67;99800.59;6242906;23;19918;-75
2022/07/06 12:23:05;;;;;;;;;;;;;;;30.47;56.87;99788.91;6242778;23;19912;-74
2022/07/06 12:25:34;;;;;;;;;;;;;;;30.63;57.63;99780.84;6243179;23;20324;-73
2022/07/06 12:28:00;;;;;;;;;;;;;;;30.91;55.10;99786.63;6242547;23;19918;-73
2022/07/06 12:30:25;;;;;;;;;;;;;;;31.19;53.36;99768.13;6242165;23;19946;-75
2022/07/06 12:33:09;;;;;;;;;;;;;;;31.48;51.81;99769.22;6241749;23;19927;-74
2022/07/06 12:35:35;;;;;;;;;;;;;;;31.73;51.16;99762.94;6230850;23;20557;-73
2022/07/06 12:38:01;;;;;;;;;;;;;;;31.99;50.74;99753.56;6232734;23;19918;-73
2022/07/06 12:40:29;;;;;;;;;;;;;;;32.08;49.72;99751.91;6230770;23;19931;-73
2022/07/06 12:42:55;;;;;;;;;;;;;;;32.18;50.85;99745.59;6229994;23;19923;-72
2022/07/06 12:45:25;;;;;;;;;;;;;;;32.33;50.73;99737.34;6229391;23;19915;-73
2022/07/06 12:47:58;;;;;;;;;;;;;;;32.25;49.86;99739.84;6209934;23;19919;-73
2022/07/06 12:50:31;;;;;;;;;;;;;;;32.21;50.61;99725.94;6242847;23;19920;-73
2022/07/06 12:52:56;;;;;;;;;;;;;;;32.14;50.53;99730.06;6242438;23;19994;-72